sensor_id;sensor_type;location;lat;lon;timestamp;P1;durP1;ratioP1;P2;durP2;ratioP2
45007;SDS011;30743;52.008;5.644;2023-04-15T00:01:58;7.40;;;3.40;;
45007;SDS011;30743;52.008;5.644;2023-04-15T00:04:24;7.75;;;2.90;;
45007;SDS011;30743;52.008;5.644;2023-04-15T00:06:50;5.55;;;2.58;;
45007;SDS011;30743;52.008;5.644;2023-04-15T00:09:19;5.53;;;2.30;;
45007;SDS011;30743;52.008;5.644;2023-04-15T00:11:45;6.22;;;2.53;;
45007;SDS011;30743;52.008;5.644;2023-04-15T00:14:14;5.35;;;2.83;;
45007;SDS011;30743;52.008;5.644;2023-04-15T00:16:39;6.32;;;3.08;;
45007;SDS011;30743;52.008;5.644;2023-04-15T00:19:05;4.78;;;2.60;;
45007;SDS011;30743;52.008;5.644;2023-04-15T00:21:30;7.15;;;3.20;;
45007;SDS011;30743;52.008;5.644;2023-04-15T00:23:56;7.78;;;3.40;;
45007;SDS011;30743;52.008;5.644;2023-04-15T00:26:22;9.35;;;3.03;;
45007;SDS011;30743;52.008;5.644;2023-04-15T00:28:47;9.57;;;3.78;;
45007;SDS011;30743;52.008;5.644;2023-04-15T00:31:13;10.48;;;3.30;;
45007;SDS011;30743;52.008;5.644;2023-04-15T00:33:39;5.13;;;3.03;;
45007;SDS011;30743;52.008;5.644;2023-04-15T00:36:05;6.18;;;3.47;;
45007;SDS011;30743;52.008;5.644;2023-04-15T00:38:31;4.45;;;2.97;;
45007;SDS011;30743;52.008;5.644;2023-04-15T00:40:57;6.63;;;3.25;;
45007;SDS011;30743;52.008;5.644;2023-04-15T00:43:23;5.22;;;3.25;;
45007;SDS011;30743;52.008;5.644;2023-04-15T00:45:50;6.78;;;3.33;;
45007;SDS011;30743;52.008;5.644;2023-04-15T00:48:17;3.72;;;2.55;;
45007;SDS011;30743;52.008;5.644;2023-04-15T00:50:43;10.05;;;3.20;;
45007;SDS011;30743;52.008;5.644;2023-04-15T00:53:09;5.93;;;3.40;;
45007;SDS011;30743;52.008;5.644;2023-04-15T00:55:35;7.45;;;3.22;;
45007;SDS011;30743;52.008;5.644;2023-04-15T00:58:01;6.78;;;3.35;;
45007;SDS011;30743;52.008;5.644;2023-04-15T01:00:27;6.75;;;3.58;;
45007;SDS011;30743;52.008;5.644;2023-04-15T01:02:53;7.47;;;3.88;;
45007;SDS011;30743;52.008;5.644;2023-04-15T01:05:18;5.75;;;3.50;;
45007;SDS011;30743;52.008;5.644;2023-04-15T01:07:44;4.35;;;3.58;;
45007;SDS011;30743;52.008;5.644;2023-04-15T01:10:11;4.95;;;3.63;;
45007;SDS011;30743;52.008;5.644;2023-04-15T01:12:37;6.32;;;3.40;;
45007;SDS011;30743;52.008;5.644;2023-04-15T01:15:03;5.88;;;3.70;;
45007;SDS011;30743;52.008;5.644;2023-04-15T01:17:29;5.65;;;3.78;;
45007;SDS011;30743;52.008;5.644;2023-04-15T01:19:55;8.48;;;3.47;;
45007;SDS011;30743;52.008;5.644;2023-04-15T01:22:24;5.00;;;3.80;;
45007;SDS011;30743;52.008;5.644;2023-04-15T01:24:55;6.15;;;3.85;;
45007;SDS011;30743;52.008;5.644;2023-04-15T01:27:26;5.80;;;3.60;;
45007;SDS011;30743;52.008;5.644;2023-04-15T01:29:52;5.65;;;3.50;;
45007;SDS011;30743;52.008;5.644;2023-04-15T01:32:17;4.63;;;3.40;;
45007;SDS011;30743;52.008;5.644;2023-04-15T01:34:43;6.65;;;3.83;;
45007;SDS011;30743;52.008;5.644;2023-04-15T01:37:09;7.90;;;3.97;;
45007;SDS011;30743;52.008;5.644;2023-04-15T01:39:35;5.43;;;3.30;;
45007;SDS011;30743;52.008;5.644;2023-04-15T01:42:01;5.35;;;3.25;;
45007;SDS011;30743;52.008;5.644;2023-04-15T01:44:27;9.80;;;3.70;;
45007;SDS011;30743;52.008;5.644;2023-04-15T01:46:52;5.70;;;3.78;;
45007;SDS011;30743;52.008;5.644;2023-04-15T01:49:18;6.40;;;3.78;;
45007;SDS011;30743;52.008;5.644;2023-04-15T01:51:43;5.70;;;3.55;;
45007;SDS011;30743;52.008;5.644;2023-04-15T01:54:09;4.38;;;3.47;;
45007;SDS011;30743;52.008;5.644;2023-04-15T01:56:35;5.68;;;3.17;;
45007;SDS011;30743;52.008;5.644;2023-04-15T01:59:00;4.72;;;3.70;;
45007;SDS011;30743;52.008;5.644;2023-04-15T02:01:27;6.28;;;3.92;;
45007;SDS011;30743;52.008;5.644;2023-04-15T02:03:53;5.68;;;4.00;;
45007;SDS011;30743;52.008;5.644;2023-04-15T02:06:18;8.07;;;3.80;;
45007;SDS011;30743;52.008;5.644;2023-04-15T02:08:44;6.82;;;3.50;;
45007;SDS011;30743;52.008;5.644;2023-04-15T02:11:10;5.97;;;3.90;;
45007;SDS011;30743;52.008;5.644;2023-04-15T02:13:36;6.80;;;4.15;;
45007;SDS011;30743;52.008;5.644;2023-04-15T02:16:02;6.30;;;3.92;;
45007;SDS011;30743;52.008;5.644;2023-04-15T02:18:27;6.25;;;3.85;;
45007;SDS011;30743;52.008;5.644;2023-04-15T02:20:53;7.68;;;3.92;;
45007;SDS011;30743;52.008;5.644;2023-04-15T02:23:19;6.75;;;4.13;;
45007;SDS011;30743;52.008;5.644;2023-04-15T02:25:45;5.95;;;4.10;;
45007;SDS011;30743;52.008;5.644;2023-04-15T02:28:11;5.95;;;3.63;;
45007;SDS011;30743;52.008;5.644;2023-04-15T02:30:36;5.05;;;3.33;;
45007;SDS011;30743;52.008;5.644;2023-04-15T02:33:02;5.57;;;3.72;;
45007;SDS011;30743;52.008;5.644;2023-04-15T02:35:28;6.18;;;3.83;;
45007;SDS011;30743;52.008;5.644;2023-04-15T02:37:53;6.57;;;4.07;;
45007;SDS011;30743;52.008;5.644;2023-04-15T02:40:19;8.20;;;4.15;;
45007;SDS011;30743;52.008;5.644;2023-04-15T02:42:44;5.90;;;3.95;;
45007;SDS011;30743;52.008;5.644;2023-04-15T02:45:10;6.07;;;4.00;;
45007;SDS011;30743;52.008;5.644;2023-04-15T02:47:36;6.32;;;3.90;;
45007;SDS011;30743;52.008;5.644;2023-04-15T02:50:06;8.50;;;4.10;;
45007;SDS011;30743;52.008;5.644;2023-04-15T02:52:33;5.72;;;4.07;;
45007;SDS011;30743;52.008;5.644;2023-04-15T02:54:59;6.40;;;4.07;;
45007;SDS011;30743;52.008;5.644;2023-04-15T02:57:26;8.80;;;3.97;;
45007;SDS011;30743;52.008;5.644;2023-04-15T02:59:53;6.05;;;3.80;;
45007;SDS011;30743;52.008;5.644;2023-04-15T03:02:19;5.18;;;3.97;;
45007;SDS011;30743;52.008;5.644;2023-04-15T03:04:44;6.90;;;4.35;;
45007;SDS011;30743;52.008;5.644;2023-04-15T03:07:10;7.57;;;4.35;;
45007;SDS011;30743;52.008;5.644;2023-04-15T03:09:35;6.50;;;4.60;;
45007;SDS011;30743;52.008;5.644;2023-04-15T03:12:03;7.03;;;4.45;;
45007;SDS011;30743;52.008;5.644;2023-04-15T03:14:29;7.85;;;4.68;;
45007;SDS011;30743;52.008;5.644;2023-04-15T03:16:54;9.32;;;4.63;;
45007;SDS011;30743;52.008;5.644;2023-04-15T03:19:20;7.38;;;4.30;;
45007;SDS011;30743;52.008;5.644;2023-04-15T03:21:46;8.20;;;4.70;;
45007;SDS011;30743;52.008;5.644;2023-04-15T03:24:11;10.30;;;4.53;;
45007;SDS011;30743;52.008;5.644;2023-04-15T03:26:37;6.05;;;4.32;;
45007;SDS011;30743;52.008;5.644;2023-04-15T03:29:02;7.78;;;4.75;;
45007;SDS011;30743;52.008;5.644;2023-04-15T03:31:28;8.82;;;5.47;;
45007;SDS011;30743;52.008;5.644;2023-04-15T03:33:53;7.55;;;5.00;;
45007;SDS011;30743;52.008;5.644;2023-04-15T03:36:19;8.38;;;5.15;;
45007;SDS011;30743;52.008;5.644;2023-04-15T03:38:44;7.88;;;5.05;;
45007;SDS011;30743;52.008;5.644;2023-04-15T03:41:10;11.23;;;5.57;;
45007;SDS011;30743;52.008;5.644;2023-04-15T03:43:36;9.27;;;4.75;;
45007;SDS011;30743;52.008;5.644;2023-04-15T03:46:01;7.25;;;5.10;;
45007;SDS011;30743;52.008;5.644;2023-04-15T03:48:27;11.70;;;5.15;;
45007;SDS011;30743;52.008;5.644;2023-04-15T03:50:52;6.85;;;4.57;;
45007;SDS011;30743;52.008;5.644;2023-04-15T03:53:20;9.63;;;5.22;;
45007;SDS011;30743;52.008;5.644;2023-04-15T03:55:46;8.20;;;5.37;;
45007;SDS011;30743;52.008;5.644;2023-04-15T03:58:12;11.00;;;5.97;;
45007;SDS011;30743;52.008;5.644;2023-04-15T04:00:38;7.35;;;5.15;;
45007;SDS011;30743;52.008;5.644;2023-04-15T04:03:05;9.15;;;5.45;;
45007;SDS011;30743;52.008;5.644;2023-04-15T04:05:30;8.00;;;5.07;;
45007;SDS011;30743;52.008;5.644;2023-04-15T04:07:56;10.70;;;5.50;;
45007;SDS011;30743;52.008;5.644;2023-04-15T04:10:22;8.60;;;4.85;;
45007;SDS011;30743;52.008;5.644;2023-04-15T04:12:47;8.23;;;5.78;;
45007;SDS011;30743;52.008;5.644;2023-04-15T04:15:13;7.80;;;5.60;;
45007;SDS011;30743;52.008;5.644;2023-04-15T04:17:38;9.82;;;5.70;;
45007;SDS011;30743;52.008;5.644;2023-04-15T04:20:04;9.75;;;5.30;;
45007;SDS011;30743;52.008;5.644;2023-04-15T04:22:30;10.60;;;5.80;;
45007;SDS011;30743;52.008;5.644;2023-04-15T04:24:56;8.30;;;5.50;;
45007;SDS011;30743;52.008;5.644;2023-04-15T04:27:23;10.88;;;5.60;;
45007;SDS011;30743;52.008;5.644;2023-04-15T04:29:49;9.80;;;5.70;;
45007;SDS011;30743;52.008;5.644;2023-04-15T04:32:15;8.82;;;5.22;;
45007;SDS011;30743;52.008;5.644;2023-04-15T04:34:40;8.30;;;5.43;;
45007;SDS011;30743;52.008;5.644;2023-04-15T04:37:06;10.25;;;5.72;;
45007;SDS011;30743;52.008;5.644;2023-04-15T04:39:31;8.15;;;5.95;;
45007;SDS011;30743;52.008;5.644;2023-04-15T04:41:57;8.35;;;5.75;;
45007;SDS011;30743;52.008;5.644;2023-04-15T04:44:22;8.88;;;5.65;;
45007;SDS011;30743;52.008;5.644;2023-04-15T04:46:48;7.88;;;6.35;;
45007;SDS011;30743;52.008;5.644;2023-04-15T04:49:14;8.77;;;6.25;;
45007;SDS011;30743;52.008;5.644;2023-04-15T04:51:39;10.85;;;6.05;;
45007;SDS011;30743;52.008;5.644;2023-04-15T04:54:05;10.27;;;5.97;;
45007;SDS011;30743;52.008;5.644;2023-04-15T04:56:30;8.05;;;5.88;;
45007;SDS011;30743;52.008;5.644;2023-04-15T04:58:58;8.57;;;6.13;;
45007;SDS011;30743;52.008;5.644;2023-04-15T05:01:23;9.02;;;6.57;;
45007;SDS011;30743;52.008;5.644;2023-04-15T05:03:50;10.85;;;6.35;;
45007;SDS011;30743;52.008;5.644;2023-04-15T05:06:16;9.15;;;6.75;;
45007;SDS011;30743;52.008;5.644;2023-04-15T05:08:41;8.55;;;6.47;;
45007;SDS011;30743;52.008;5.644;2023-04-15T05:11:07;8.43;;;6.43;;
45007;SDS011;30743;52.008;5.644;2023-04-15T05:13:32;8.77;;;5.68;;
45007;SDS011;30743;52.008;5.644;2023-04-15T05:15:58;9.07;;;6.28;;
45007;SDS011;30743;52.008;5.644;2023-04-15T05:18:24;10.50;;;6.60;;
45007;SDS011;30743;52.008;5.644;2023-04-15T05:20:49;8.30;;;6.15;;
45007;SDS011;30743;52.008;5.644;2023-04-15T05:23:15;9.35;;;6.25;;
45007;SDS011;30743;52.008;5.644;2023-04-15T05:25:41;9.82;;;6.20;;
45007;SDS011;30743;52.008;5.644;2023-04-15T05:28:07;9.50;;;6.30;;
45007;SDS011;30743;52.008;5.644;2023-04-15T05:30:32;9.77;;;6.50;;
45007;SDS011;30743;52.008;5.644;2023-04-15T05:32:58;8.73;;;6.32;;
45007;SDS011;30743;52.008;5.644;2023-04-15T05:35:24;9.90;;;6.18;;
45007;SDS011;30743;52.008;5.644;2023-04-15T05:37:49;9.63;;;6.30;;
45007;SDS011;30743;52.008;5.644;2023-04-15T05:40:15;9.57;;;5.95;;
45007;SDS011;30743;52.008;5.644;2023-04-15T05:42:40;10.00;;;6.57;;
45007;SDS011;30743;52.008;5.644;2023-04-15T05:45:06;9.40;;;7.47;;
45007;SDS011;30743;52.008;5.644;2023-04-15T05:47:34;8.68;;;6.22;;
45007;SDS011;30743;52.008;5.644;2023-04-15T05:50:00;9.10;;;6.43;;
45007;SDS011;30743;52.008;5.644;2023-04-15T05:52:26;9.05;;;6.53;;
45007;SDS011;30743;52.008;5.644;2023-04-15T05:54:51;8.90;;;6.20;;
45007;SDS011;30743;52.008;5.644;2023-04-15T05:57:17;7.97;;;6.18;;
45007;SDS011;30743;52.008;5.644;2023-04-15T05:59:42;8.52;;;5.68;;
45007;SDS011;30743;52.008;5.644;2023-04-15T06:02:08;10.07;;;6.65;;
45007;SDS011;30743;52.008;5.644;2023-04-15T06:04:34;8.85;;;7.03;;
45007;SDS011;30743;52.008;5.644;2023-04-15T06:07:00;8.90;;;6.47;;
45007;SDS011;30743;52.008;5.644;2023-04-15T06:09:26;9.63;;;6.50;;
45007;SDS011;30743;52.008;5.644;2023-04-15T06:11:53;11.23;;;6.80;;
45007;SDS011;30743;52.008;5.644;2023-04-15T06:14:18;11.95;;;6.35;;
45007;SDS011;30743;52.008;5.644;2023-04-15T06:16:44;8.20;;;5.82;;
45007;SDS011;30743;52.008;5.644;2023-04-15T06:19:10;8.85;;;6.22;;
45007;SDS011;30743;52.008;5.644;2023-04-15T06:21:36;8.60;;;6.13;;
45007;SDS011;30743;52.008;5.644;2023-04-15T06:24:02;8.20;;;5.80;;
45007;SDS011;30743;52.008;5.644;2023-04-15T06:26:27;10.20;;;6.82;;
45007;SDS011;30743;52.008;5.644;2023-04-15T06:28:53;9.05;;;6.03;;
45007;SDS011;30743;52.008;5.644;2023-04-15T06:31:19;8.75;;;6.72;;
45007;SDS011;30743;52.008;5.644;2023-04-15T06:33:45;8.27;;;6.55;;
45007;SDS011;30743;52.008;5.644;2023-04-15T06:36:11;9.02;;;6.50;;
45007;SDS011;30743;52.008;5.644;2023-04-15T06:38:36;9.63;;;6.75;;
45007;SDS011;30743;52.008;5.644;2023-04-15T06:41:02;10.60;;;7.10;;
45007;SDS011;30743;52.008;5.644;2023-04-15T06:43:28;10.95;;;7.07;;
45007;SDS011;30743;52.008;5.644;2023-04-15T06:45:54;10.82;;;7.75;;
45007;SDS011;30743;52.008;5.644;2023-04-15T06:48:20;8.68;;;6.60;;
45007;SDS011;30743;52.008;5.644;2023-04-15T06:50:46;8.88;;;6.85;;
45007;SDS011;30743;52.008;5.644;2023-04-15T06:53:12;10.48;;;6.72;;
45007;SDS011;30743;52.008;5.644;2023-04-15T06:55:38;8.45;;;6.55;;
45007;SDS011;30743;52.008;5.644;2023-04-15T06:58:05;9.68;;;6.80;;
45007;SDS011;30743;52.008;5.644;2023-04-15T07:00:31;7.15;;;6.00;;
45007;SDS011;30743;52.008;5.644;2023-04-15T07:02:58;8.15;;;6.30;;
45007;SDS011;30743;52.008;5.644;2023-04-15T07:07:53;9.02;;;6.35;;
45007;SDS011;30743;52.008;5.644;2023-04-15T07:10:18;10.63;;;6.85;;
45007;SDS011;30743;52.008;5.644;2023-04-15T07:12:44;10.65;;;6.00;;
45007;SDS011;30743;52.008;5.644;2023-04-15T07:15:10;8.48;;;6.25;;
45007;SDS011;30743;52.008;5.644;2023-04-15T07:17:36;7.05;;;5.40;;
45007;SDS011;30743;52.008;5.644;2023-04-15T07:20:02;11.18;;;6.28;;
45007;SDS011;30743;52.008;5.644;2023-04-15T07:22:28;8.00;;;5.85;;
45007;SDS011;30743;52.008;5.644;2023-04-15T07:24:54;8.02;;;5.68;;
45007;SDS011;30743;52.008;5.644;2023-04-15T07:27:20;7.55;;;5.47;;
45007;SDS011;30743;52.008;5.644;2023-04-15T07:29:45;6.63;;;5.05;;
45007;SDS011;30743;52.008;5.644;2023-04-15T07:32:11;6.05;;;4.38;;
45007;SDS011;30743;52.008;5.644;2023-04-15T07:34:36;4.90;;;3.90;;
45007;SDS011;30743;52.008;5.644;2023-04-15T07:37:02;7.43;;;3.42;;
45007;SDS011;30743;52.008;5.644;2023-04-15T07:39:27;5.82;;;2.85;;
45007;SDS011;30743;52.008;5.644;2023-04-15T07:41:53;5.38;;;3.50;;
45007;SDS011;30743;52.008;5.644;2023-04-15T07:44:20;4.05;;;2.95;;
45007;SDS011;30743;52.008;5.644;2023-04-15T07:46:46;3.97;;;2.70;;
45007;SDS011;30743;52.008;5.644;2023-04-15T07:49:11;4.70;;;2.83;;
45007;SDS011;30743;52.008;5.644;2023-04-15T07:51:37;4.15;;;2.97;;
45007;SDS011;30743;52.008;5.644;2023-04-15T07:54:03;4.50;;;3.20;;
45007;SDS011;30743;52.008;5.644;2023-04-15T07:56:28;3.72;;;2.70;;
45007;SDS011;30743;52.008;5.644;2023-04-15T07:58:54;4.18;;;3.17;;
45007;SDS011;30743;52.008;5.644;2023-04-15T08:01:19;5.10;;;3.55;;
45007;SDS011;30743;52.008;5.644;2023-04-15T08:03:45;3.78;;;3.00;;
45007;SDS011;30743;52.008;5.644;2023-04-15T08:06:11;5.00;;;2.83;;
45007;SDS011;30743;52.008;5.644;2023-04-15T08:08:36;5.35;;;3.42;;
45007;SDS011;30743;52.008;5.644;2023-04-15T08:11:02;4.63;;;3.45;;
45007;SDS011;30743;52.008;5.644;2023-04-15T08:13:27;5.10;;;3.45;;
45007;SDS011;30743;52.008;5.644;2023-04-15T08:18:57;5.22;;;3.50;;
45007;SDS011;30743;52.008;5.644;2023-04-15T08:21:23;5.13;;;3.55;;
45007;SDS011;30743;52.008;5.644;2023-04-15T08:23:49;5.78;;;3.90;;
45007;SDS011;30743;52.008;5.644;2023-04-15T08:26:16;5.97;;;3.90;;
45007;SDS011;30743;52.008;5.644;2023-04-15T08:28:43;5.10;;;3.42;;
45007;SDS011;30743;52.008;5.644;2023-04-15T08:31:10;5.55;;;3.65;;
45007;SDS011;30743;52.008;5.644;2023-04-15T08:33:40;6.97;;;3.10;;
45007;SDS011;30743;52.008;5.644;2023-04-15T08:36:05;4.60;;;3.05;;
45007;SDS011;30743;52.008;5.644;2023-04-15T08:38:31;5.53;;;3.42;;
45007;SDS011;30743;52.008;5.644;2023-04-15T08:40:58;6.72;;;3.40;;
45007;SDS011;30743;52.008;5.644;2023-04-15T08:43:27;5.72;;;3.25;;
45007;SDS011;30743;52.008;5.644;2023-04-15T08:45:58;6.15;;;3.30;;
45007;SDS011;30743;52.008;5.644;2023-04-15T08:48:27;3.80;;;2.95;;
45007;SDS011;30743;52.008;5.644;2023-04-15T08:50:56;6.22;;;3.97;;
45007;SDS011;30743;52.008;5.644;2023-04-15T08:53:23;4.20;;;3.03;;
45007;SDS011;30743;52.008;5.644;2023-04-15T08:55:50;4.10;;;2.90;;
45007;SDS011;30743;52.008;5.644;2023-04-15T08:58:16;3.50;;;2.60;;
45007;SDS011;30743;52.008;5.644;2023-04-15T09:00:43;4.75;;;3.25;;
45007;SDS011;30743;52.008;5.644;2023-04-15T09:03:09;4.97;;;3.38;;
45007;SDS011;30743;52.008;5.644;2023-04-15T09:05:35;3.92;;;3.25;;
45007;SDS011;30743;52.008;5.644;2023-04-15T09:08:02;5.82;;;3.75;;
45007;SDS011;30743;52.008;5.644;2023-04-15T09:10:29;4.38;;;3.10;;
45007;SDS011;30743;52.008;5.644;2023-04-15T09:12:55;4.72;;;2.97;;
45007;SDS011;30743;52.008;5.644;2023-04-15T09:15:22;6.30;;;3.00;;
45007;SDS011;30743;52.008;5.644;2023-04-15T09:17:49;4.82;;;3.30;;
45007;SDS011;30743;52.008;5.644;2023-04-15T09:20:15;5.85;;;2.72;;
45007;SDS011;30743;52.008;5.644;2023-04-15T09:22:44;3.55;;;2.47;;
45007;SDS011;30743;52.008;5.644;2023-04-15T09:30:14;3.47;;;2.20;;
45007;SDS011;30743;52.008;5.644;2023-04-15T09:32:50;3.70;;;2.53;;
45007;SDS011;30743;52.008;5.644;2023-04-15T09:35:18;5.85;;;2.45;;
45007;SDS011;30743;52.008;5.644;2023-04-15T09:37:44;3.83;;;2.00;;
45007;SDS011;30743;52.008;5.644;2023-04-15T09:40:10;3.65;;;2.00;;
45007;SDS011;30743;52.008;5.644;2023-04-15T09:42:36;3.78;;;1.80;;
45007;SDS011;30743;52.008;5.644;2023-04-15T09:45:18;2.25;;;1.50;;
45007;SDS011;30743;52.008;5.644;2023-04-15T09:47:45;2.85;;;1.65;;
45007;SDS011;30743;52.008;5.644;2023-04-15T09:50:11;2.13;;;1.10;;
45007;SDS011;30743;52.008;5.644;2023-04-15T09:52:40;2.10;;;1.30;;
45007;SDS011;30743;52.008;5.644;2023-04-15T09:55:07;3.05;;;1.58;;
45007;SDS011;30743;52.008;5.644;2023-04-15T09:57:33;3.67;;;1.42;;
45007;SDS011;30743;52.008;5.644;2023-04-15T10:00:01;2.00;;;1.30;;
45007;SDS011;30743;52.008;5.644;2023-04-15T10:02:32;2.35;;;1.45;;
45007;SDS011;30743;52.008;5.644;2023-04-15T10:04:58;2.95;;;1.70;;
45007;SDS011;30743;52.008;5.644;2023-04-15T10:07:25;3.13;;;1.70;;
45007;SDS011;30743;52.008;5.644;2023-04-15T10:09:51;2.38;;;1.60;;
45007;SDS011;30743;52.008;5.644;2023-04-15T10:12:17;4.28;;;1.60;;
45007;SDS011;30743;52.008;5.644;2023-04-15T10:14:44;2.30;;;1.50;;
45007;SDS011;30743;52.008;5.644;2023-04-15T10:17:16;2.30;;;1.80;;
45007;SDS011;30743;52.008;5.644;2023-04-15T10:19:42;2.83;;;1.42;;
45007;SDS011;30743;52.008;5.644;2023-04-15T10:22:08;2.88;;;1.67;;
45007;SDS011;30743;52.008;5.644;2023-04-15T10:24:34;2.78;;;1.55;;
45007;SDS011;30743;52.008;5.644;2023-04-15T10:27:02;2.28;;;1.70;;
45007;SDS011;30743;52.008;5.644;2023-04-15T10:29:28;2.10;;;1.40;;
45007;SDS011;30743;52.008;5.644;2023-04-15T10:31:54;2.95;;;2.00;;
45007;SDS011;30743;52.008;5.644;2023-04-15T10:34:21;2.70;;;1.67;;
45007;SDS011;30743;52.008;5.644;2023-04-15T10:36:48;2.38;;;1.80;;
45007;SDS011;30743;52.008;5.644;2023-04-15T10:42:05;3.17;;;2.15;;
45007;SDS011;30743;52.008;5.644;2023-04-15T10:44:32;2.55;;;1.90;;
45007;SDS011;30743;52.008;5.644;2023-04-15T10:46:57;3.53;;;2.28;;
45007;SDS011;30743;52.008;5.644;2023-04-15T10:49:24;2.47;;;1.98;;
45007;SDS011;30743;52.008;5.644;2023-04-15T10:51:50;2.92;;;1.92;;
45007;SDS011;30743;52.008;5.644;2023-04-15T10:57:05;2.67;;;2.03;;
45007;SDS011;30743;52.008;5.644;2023-04-15T10:59:36;2.40;;;2.00;;
45007;SDS011;30743;52.008;5.644;2023-04-15T11:02:38;2.70;;;1.77;;
45007;SDS011;30743;52.008;5.644;2023-04-15T11:05:21;3.97;;;1.77;;
45007;SDS011;30743;52.008;5.644;2023-04-15T11:08:07;3.38;;;1.90;;
45007;SDS011;30743;52.008;5.644;2023-04-15T11:13:03;3.30;;;1.80;;
45007;SDS011;30743;52.008;5.644;2023-04-15T11:15:40;2.80;;;1.77;;
45007;SDS011;30743;52.008;5.644;2023-04-15T11:18:19;2.63;;;2.00;;
45007;SDS011;30743;52.008;5.644;2023-04-15T11:20:53;2.65;;;1.85;;
45007;SDS011;30743;52.008;5.644;2023-04-15T11:23:33;2.70;;;1.90;;
45007;SDS011;30743;52.008;5.644;2023-04-15T11:26:01;3.22;;;2.08;;
45007;SDS011;30743;52.008;5.644;2023-04-15T11:28:31;2.03;;;1.70;;
45007;SDS011;30743;52.008;5.644;2023-04-15T11:30:57;2.85;;;1.40;;
45007;SDS011;30743;52.008;5.644;2023-04-15T11:33:29;2.58;;;1.45;;
45007;SDS011;30743;52.008;5.644;2023-04-15T11:35:55;2.92;;;1.60;;
45007;SDS011;30743;52.008;5.644;2023-04-15T11:38:21;2.33;;;1.65;;
45007;SDS011;30743;52.008;5.644;2023-04-15T11:40:46;2.13;;;1.55;;
45007;SDS011;30743;52.008;5.644;2023-04-15T11:43:15;3.67;;;1.58;;
45007;SDS011;30743;52.008;5.644;2023-04-15T11:48:18;2.35;;;1.63;;
45007;SDS011;30743;52.008;5.644;2023-04-15T11:50:45;2.78;;;1.55;;
45007;SDS011;30743;52.008;5.644;2023-04-15T11:53:11;2.17;;;1.48;;
45007;SDS011;30743;52.008;5.644;2023-04-15T11:55:41;1.38;;;1.05;;
45007;SDS011;30743;52.008;5.644;2023-04-15T11:58:11;3.22;;;1.30;;
45007;SDS011;30743;52.008;5.644;2023-04-15T12:00:49;2.97;;;1.40;;
45007;SDS011;30743;52.008;5.644;2023-04-15T12:06:07;5.25;;;1.33;;
45007;SDS011;30743;52.008;5.644;2023-04-15T12:11:12;2.95;;;1.13;;
45007;SDS011;30743;52.008;5.644;2023-04-15T12:13:42;3.00;;;1.20;;
45007;SDS011;30743;52.008;5.644;2023-04-15T12:16:11;2.70;;;1.30;;
45007;SDS011;30743;52.008;5.644;2023-04-15T12:18:37;1.77;;;1.30;;
45007;SDS011;30743;52.008;5.644;2023-04-15T12:21:09;2.38;;;1.33;;
45007;SDS011;30743;52.008;5.644;2023-04-15T12:23:36;6.43;;;2.28;;
45007;SDS011;30743;52.008;5.644;2023-04-15T12:26:12;2.65;;;1.73;;
45007;SDS011;30743;52.008;5.644;2023-04-15T12:28:39;1.50;;;1.25;;
45007;SDS011;30743;52.008;5.644;2023-04-15T12:31:08;2.42;;;1.67;;
45007;SDS011;30743;52.008;5.644;2023-04-15T12:33:35;4.05;;;1.42;;
45007;SDS011;30743;52.008;5.644;2023-04-15T12:36:01;2.15;;;1.55;;
45007;SDS011;30743;52.008;5.644;2023-04-15T12:38:27;2.65;;;1.20;;
45007;SDS011;30743;52.008;5.644;2023-04-15T12:40:53;2.58;;;1.17;;
45007;SDS011;30743;52.008;5.644;2023-04-15T12:43:19;0.98;;;0.88;;
45007;SDS011;30743;52.008;5.644;2023-04-15T12:45:44;1.25;;;0.90;;
45007;SDS011;30743;52.008;5.644;2023-04-15T12:48:10;1.90;;;0.98;;
45007;SDS011;30743;52.008;5.644;2023-04-15T12:50:36;1.73;;;1.00;;
45007;SDS011;30743;52.008;5.644;2023-04-15T12:53:01;2.15;;;1.00;;
45007;SDS011;30743;52.008;5.644;2023-04-15T12:55:27;2.55;;;0.70;;
45007;SDS011;30743;52.008;5.644;2023-04-15T12:57:54;3.45;;;0.80;;
45007;SDS011;30743;52.008;5.644;2023-04-15T13:00:20;0.98;;;0.80;;
45007;SDS011;30743;52.008;5.644;2023-04-15T13:02:46;3.55;;;1.10;;
45007;SDS011;30743;52.008;5.644;2023-04-15T13:05:11;3.35;;;1.13;;
45007;SDS011;30743;52.008;5.644;2023-04-15T13:07:38;1.45;;;0.88;;
45007;SDS011;30743;52.008;5.644;2023-04-15T13:10:04;4.13;;;0.95;;
45007;SDS011;30743;52.008;5.644;2023-04-15T13:12:30;2.13;;;0.88;;
45007;SDS011;30743;52.008;5.644;2023-04-15T13:14:56;2.45;;;0.77;;
45007;SDS011;30743;52.008;5.644;2023-04-15T13:17:22;1.75;;;1.13;;
45007;SDS011;30743;52.008;5.644;2023-04-15T13:19:47;2.97;;;1.10;;
45007;SDS011;30743;52.008;5.644;2023-04-15T13:22:13;5.78;;;1.88;;
45007;SDS011;30743;52.008;5.644;2023-04-15T13:24:39;1.52;;;0.70;;
45007;SDS011;30743;52.008;5.644;2023-04-15T13:27:05;1.17;;;0.90;;
45007;SDS011;30743;52.008;5.644;2023-04-15T13:29:32;1.27;;;0.68;;
45007;SDS011;30743;52.008;5.644;2023-04-15T13:31:57;0.90;;;0.70;;
45007;SDS011;30743;52.008;5.644;2023-04-15T13:34:24;2.67;;;0.90;;
45007;SDS011;30743;52.008;5.644;2023-04-15T13:36:49;1.35;;;0.70;;
45007;SDS011;30743;52.008;5.644;2023-04-15T13:39:15;0.98;;;0.70;;
45007;SDS011;30743;52.008;5.644;2023-04-15T13:41:40;0.85;;;0.70;;
45007;SDS011;30743;52.008;5.644;2023-04-15T13:44:06;0.95;;;0.70;;
45007;SDS011;30743;52.008;5.644;2023-04-15T13:46:32;3.35;;;0.88;;
45007;SDS011;30743;52.008;5.644;2023-04-15T13:48:57;1.30;;;0.70;;
45007;SDS011;30743;52.008;5.644;2023-04-15T13:51:23;2.63;;;0.70;;
45007;SDS011;30743;52.008;5.644;2023-04-15T13:53:48;0.70;;;0.50;;
45007;SDS011;30743;52.008;5.644;2023-04-15T13:56:14;2.13;;;0.70;;
45007;SDS011;30743;52.008;5.644;2023-04-15T13:58:40;4.05;;;0.60;;
45007;SDS011;30743;52.008;5.644;2023-04-15T14:01:05;1.70;;;0.80;;
45007;SDS011;30743;52.008;5.644;2023-04-15T14:03:31;1.38;;;0.80;;
45007;SDS011;30743;52.008;5.644;2023-04-15T14:05:57;1.77;;;0.80;;
45007;SDS011;30743;52.008;5.644;2023-04-15T14:08:23;3.20;;;0.88;;
45007;SDS011;30743;52.008;5.644;2023-04-15T14:10:49;1.88;;;1.17;;
45007;SDS011;30743;52.008;5.644;2023-04-15T14:13:15;2.28;;;0.85;;
45007;SDS011;30743;52.008;5.644;2023-04-15T14:15:40;1.40;;;0.93;;
45007;SDS011;30743;52.008;5.644;2023-04-15T14:18:06;1.60;;;0.90;;
45007;SDS011;30743;52.008;5.644;2023-04-15T14:20:32;1.60;;;0.80;;
45007;SDS011;30743;52.008;5.644;2023-04-15T14:22:57;2.10;;;0.88;;
45007;SDS011;30743;52.008;5.644;2023-04-15T14:25:23;1.10;;;0.70;;
45007;SDS011;30743;52.008;5.644;2023-04-15T14:27:50;2.70;;;0.80;;
45007;SDS011;30743;52.008;5.644;2023-04-15T14:30:16;2.85;;;1.10;;
45007;SDS011;30743;52.008;5.644;2023-04-15T14:32:42;0.90;;;0.70;;
45007;SDS011;30743;52.008;5.644;2023-04-15T14:35:07;1.92;;;1.02;;
45007;SDS011;30743;52.008;5.644;2023-04-15T14:37:33;1.08;;;0.90;;
45007;SDS011;30743;52.008;5.644;2023-04-15T14:39:58;2.13;;;1.10;;
45007;SDS011;30743;52.008;5.644;2023-04-15T14:42:24;2.65;;;0.98;;
45007;SDS011;30743;52.008;5.644;2023-04-15T14:44:50;2.78;;;1.00;;
45007;SDS011;30743;52.008;5.644;2023-04-15T14:47:15;2.83;;;1.10;;
45007;SDS011;30743;52.008;5.644;2023-04-15T14:49:41;3.78;;;1.10;;
45007;SDS011;30743;52.008;5.644;2023-04-15T14:52:06;3.28;;;1.00;;
45007;SDS011;30743;52.008;5.644;2023-04-15T14:54:32;2.17;;;0.90;;
45007;SDS011;30743;52.008;5.644;2023-04-15T14:56:57;2.35;;;1.42;;
45007;SDS011;30743;52.008;5.644;2023-04-15T14:59:23;1.77;;;0.98;;
45007;SDS011;30743;52.008;5.644;2023-04-15T15:01:49;4.72;;;1.30;;
45007;SDS011;30743;52.008;5.644;2023-04-15T15:04:14;4.35;;;1.30;;
45007;SDS011;30743;52.008;5.644;2023-04-15T15:06:40;3.67;;;1.30;;
45007;SDS011;30743;52.008;5.644;2023-04-15T15:09:06;3.40;;;1.33;;